Time,TemperatureF,DewpointF,PressureIn,WindDirection,WindDirectionDegrees,WindSpeedMPH,WindSpeedGustMPH,Humidity,HourlyPrecipIn,Conditions,Clouds,dailyrainin,SoftwareType,DateUTC
2013-02-10 00:00:00,27.3,20.1,30.00,ESE,112,0.4,5.8,74,0.00,,,0.00,WUHU21623XXSP,2013-02-10 06:00:00,
2013-02-10 00:05:00,27.3,20.1,30.00,SE,135,1.8,5.8,74,0.00,,,0.00,WUHU21623XXSP,2013-02-10 06:05:00,
2013-02-10 00:10:00,27.5,20.3,30.00,ESE,112,3.4,5.8,74,0.00,,,0.00,WUHU21623XXSP,2013-02-10 06:10:00,
2013-02-10 00:15:00,27.7,20.4,29.99,SE,135,3.8,7.6,74,0.00,,,0.00,WUHU21623XXSP,2013-02-10 06:15:00,
2013-02-10 00:20:00,27.7,20.4,30.00,SE,135,4.0,7.6,74,0.00,,,0.00,WUHU21623XXSP,2013-02-10 06:20:00,
2013-02-10 00:25:00,27.7,20.4,30.01,ESE,112,2.2,6.9,74,0.00,,,0.00,WUHU21623XXSP,2013-02-10 06:25:00,
2013-02-10 00:30:00,27.9,20.6,30.00,SSE,157,2.0,5.8,74,0.00,,,0.00,WUHU21623XXSP,2013-02-10 06:30:00,
2013-02-10 00:35:00,27.9,20.6,30.00,SE,135,4.5,5.8,74,0.00,,,0.00,WUHU21623XXSP,2013-02-10 06:35:00,
2013-02-10 00:40:00,27.9,20.6,30.00,SE,135,1.3,6.9,74,0.00,,,0.00,WUHU21623XXSP,2013-02-10 06:40:00,
2013-02-10 00:45:00,27.7,20.4,30.00,ESE,112,1.3,6.9,74,0.00,,,0.00,WUHU21623XXSP,2013-02-10 06:45:00,
2013-02-10 00:50:00,27.5,20.3,29.99,SSE,157,0.9,4.7,74,0.00,,,0.00,WUHU21623XXSP,2013-02-10 06:50:00,
2013-02-10 00:55:00,27.5,20.3,29.99,SE,135,0.9,4.7,74,0.00,,,0.00,WUHU21623XXSP,2013-02-10 06:55:00,
2013-02-10 01:00:00,27.3,20.1,29.99,SE,135,2.7,5.1,74,0.00,,,0.00,WUHU21623XXSP,2013-02-10 07:00:00,
2013-02-10 01:05:00,27.3,20.1,29.99,SE,135,2.0,5.1,74,0.00,,,0.00,WUHU21623XXSP,2013-02-10 07:05:00,
2013-02-10 01:10:00,27.3,20.1,29.99,SE,135,1.3,5.4,74,0.00,,,0.00,WUHU21623XXSP,2013-02-10 07:10:00,
2013-02-10 01:15:00,27.5,20.3,29.98,SSE,157,4.0,8.5,74,0.00,,,0.00,WUHU21623XXSP,2013-02-10 07:15:00,
2013-02-10 01:20:00,27.5,20.3,29.98,ESE,112,2.5,8.5,74,0.00,,,0.00,WUHU21623XXSP,2013-02-10 07:20:00,
2013-02-10 01:25:00,27.5,20.3,29.98,SSE,157,0.7,6.7,74,0.00,,,0.00,WUHU21623XXSP,2013-02-10 07:25:00,
2013-02-10 01:30:00,27.7,20.4,29.97,SSE,157,1.6,5.8,74,0.00,,,0.00,WUHU21623XXSP,2013-02-10 07:30:00,
2013-02-10 01:35:00,27.9,20.6,29.97,ESE,112,0.9,5.1,74,0.00,,,0.00,WUHU21623XXSP,2013-02-10 07:35:00,
2013-02-10 01:40:00,28.0,20.8,29.97,SE,135,4.7,5.8,74,0.00,,,0.00,WUHU21623XXSP,2013-02-10 07:40:00,
2013-02-10 01:45:00,28.0,20.8,29.98,SE,135,2.5,5.8,74,0.00,,,0.00,WUHU21623XXSP,2013-02-10 07:45:00,
2013-02-10 01:50:00,28.2,21.3,29.96,SE,135,2.2,5.6,75,0.00,,,0.00,WUHU21623XXSP,2013-02-10 07:50:00,
2013-02-10 01:55:00,28.6,21.3,29.96,SE,135,4.3,6.5,74,0.00,,,0.00,WUHU21623XXSP,2013-02-10 07:55:00,
2013-02-10 02:00:00,28.6,21.6,29.96,SE,135,3.4,6.5,75,0.00,,,0.00,WUHU21623XXSP,2013-02-10 08:00:00,
2013-02-10 02:05:00,28.8,21.8,29.95,SE,135,1.6,6.7,75,0.00,,,0.00,WUHU21623XXSP,2013-02-10 08:05:00,
2013-02-10 02:10:00,28.9,22.0,29.95,SE,135,0.4,6.7,75,0.00,,,0.00,WUHU21623XXSP,2013-02-10 08:10:00,
2013-02-10 02:15:00,29.1,22.2,29.96,SE,135,3.4,6.0,75,0.00,,,0.00,WUHU21623XXSP,2013-02-10 08:15:00,
2013-02-10 02:20:00,29.3,22.3,29.96,SE,135,2.0,6.5,75,0.00,,,0.00,WUHU21623XXSP,2013-02-10 08:20:00,
2013-02-10 02:25:00,29.5,22.5,29.95,ESE,112,1.6,6.5,75,0.00,,,0.00,WUHU21623XXSP,2013-02-10 08:25:00,
2013-02-10 02:30:00,29.7,22.7,29.94,SE,135,2.2,6.5,75,0.00,,,0.00,WUHU21623XXSP,2013-02-10 08:30:00,
2013-02-10 02:35:00,29.8,22.8,29.94,SE,135,2.9,6.5,75,0.00,,,0.00,WUHU21623XXSP,2013-02-10 08:35:00,
2013-02-10 02:40:00,30.4,23.4,29.94,SE,135,6.5,6.5,75,0.00,,,0.00,WUHU21623XXSP,2013-02-10 08:40:00,
2013-02-10 02:45:00,30.6,23.5,29.94,SE,135,1.3,6.5,75,0.00,,,0.00,WUHU21623XXSP,2013-02-10 08:45:00,
2013-02-10 02:50:00,30.7,23.7,29.94,South,180,4.9,4.9,75,0.00,,,0.00,WUHU21623XXSP,2013-02-10 08:50:00,
2013-02-10 02:55:00,31.1,24.1,29.94,SE,135,1.3,5.1,75,0.00,,,0.00,WUHU21623XXSP,2013-02-10 08:55:00,
2013-02-10 03:00:00,31.5,24.4,29.94,ESE,112,0.9,5.1,75,0.00,,,0.00,WUHU21623XXSP,2013-02-10 09:00:00,
2013-02-10 03:05:00,31.6,24.6,29.93,SSE,157,2.0,3.8,75,0.00,,,0.00,WUHU21623XXSP,2013-02-10 09:05:00,
2013-02-10 03:10:00,32.2,25.1,29.93,SSE,157,0.7,4.5,75,0.00,,,0.00,WUHU21623XXSP,2013-02-10 09:10:00,
2013-02-10 03:15:00,32.2,25.1,29.93,SSE,157,2.7,5.4,75,0.00,,,0.00,WUHU21623XXSP,2013-02-10 09:15:00,
2013-02-10 03:20:00,32.4,25.3,29.92,SE,135,3.6,5.4,75,0.00,,,0.00,WUHU21623XXSP,2013-02-10 09:20:00,
2013-02-10 03:25:00,32.4,25.3,29.92,SE,135,1.6,5.4,75,0.00,,,0.00,WUHU21623XXSP,2013-02-10 09:25:00,
2013-02-10 03:30:00,32.5,25.5,29.92,SSE,157,3.1,5.1,75,0.00,,,0.00,WUHU21623XXSP,2013-02-10 09:30:00,
2013-02-10 03:35:00,32.5,25.5,29.92,South,180,2.2,6.7,75,0.00,,,0.00,WUHU21623XXSP,2013-02-10 09:35:00,
2013-02-10 03:40:00,32.7,25.6,29.92,SSE,157,2.7,6.7,75,0.00,,,0.00,WUHU21623XXSP,2013-02-10 09:40:00,
2013-02-10 03:45:00,32.7,25.6,29.91,SE,135,4.5,6.0,75,0.00,,,0.00,WUHU21623XXSP,2013-02-10 09:45:00,
2013-02-10 03:50:00,32.9,25.8,29.91,SSE,157,2.0,6.5,75,0.00,,,0.00,WUHU21623XXSP,2013-02-10 09:50:00,
2013-02-10 03:55:00,32.9,25.8,29.90,SE,135,2.7,6.5,75,0.00,,,0.00,WUHU21623XXSP,2013-02-10 09:55:00,
2013-02-10 04:00:00,32.9,25.8,29.91,SE,135,0.9,6.9,75,0.00,,,0.00,WUHU21623XXSP,2013-02-10 10:00:00,
2013-02-10 04:05:00,32.9,25.8,29.91,SE,135,3.8,6.9,75,0.00,,,0.00,WUHU21623XXSP,2013-02-10 10:05:00,
2013-02-10 04:10:00,33.1,26.0,29.90,SSE,157,0.9,6.0,75,0.00,,,0.00,WUHU21623XXSP,2013-02-10 10:10:00,
2013-02-10 04:15:00,33.1,26.0,29.91,SSE,157,3.8,6.0,75,0.00,,,0.00,WUHU21623XXSP,2013-02-10 10:15:00,
2013-02-10 04:20:00,33.3,26.1,29.90,SE,135,4.0,4.5,75,0.00,,,0.00,WUHU21623XXSP,2013-02-10 10:20:00,
2013-02-10 04:25:00,33.3,26.1,29.90,SE,135,2.5,5.4,75,0.00,,,0.00,WUHU21623XXSP,2013-02-10 10:25:00,
2013-02-10 04:30:00,33.3,26.4,29.90,SE,135,5.4,8.3,76,0.00,,,0.00,WUHU21623XXSP,2013-02-10 10:30:00,
2013-02-10 04:35:00,33.4,26.6,29.90,South,180,3.6,8.3,76,0.00,,,0.00,WUHU21623XXSP,2013-02-10 10:35:00,
2013-02-10 04:40:00,33.4,26.6,29.89,SE,135,3.8,11.0,76,0.00,,,0.00,WUHU21623XXSP,2013-02-10 10:40:00,
2013-02-10 04:45:00,33.4,26.6,29.89,SSE,157,5.1,11.0,76,0.00,,,0.00,WUHU21623XXSP,2013-02-10 10:45:00,
2013-02-10 04:50:00,33.4,26.6,29.89,SE,135,0.0,7.2,76,0.00,,,0.00,WUHU21623XXSP,2013-02-10 10:50:00,
2013-02-10 04:55:00,33.4,26.6,29.89,SE,135,2.9,7.6,76,0.00,,,0.00,WUHU21623XXSP,2013-02-10 10:55:00,
2013-02-10 05:00:00,33.4,26.6,29.89,ESE,112,0.7,7.6,76,0.00,,,0.00,WUHU21623XXSP,2013-02-10 11:00:00,
2013-02-10 05:05:00,33.4,26.6,29.88,ESE,112,6.3,6.3,76,0.00,,,0.00,WUHU21623XXSP,2013-02-10 11:05:00,
2013-02-10 05:10:00,33.4,26.9,29.88,SSE,157,2.7,6.3,77,0.00,,,0.00,WUHU21623XXSP,2013-02-10 11:10:00,
2013-02-10 05:15:00,33.4,26.9,29.88,SE,135,1.6,6.9,77,0.00,,,0.00,WUHU21623XXSP,2013-02-10 11:15:00,
2013-02-10 05:20:00,33.3,26.8,29.88,SE,135,5.4,11.0,77,0.00,,,0.00,WUHU21623XXSP,2013-02-10 11:20:00,
2013-02-10 05:25:00,33.4,26.9,29.88,South,180,4.5,11.0,77,0.00,,,0.00,WUHU21623XXSP,2013-02-10 11:25:00,
2013-02-10 05:30:00,33.3,27.1,29.87,SSE,157,5.6,8.9,78,0.00,,,0.00,WUHU21623XXSP,2013-02-10 11:30:00,
2013-02-10 05:35:00,33.4,27.2,29.86,East,90,2.9,8.9,78,0.00,,,0.00,WUHU21623XXSP,2013-02-10 11:35:00,
2013-02-10 05:40:00,33.4,27.6,29.86,SE,135,2.9,8.9,79,0.00,,,0.00,WUHU21623XXSP,2013-02-10 11:40:00,
2013-02-10 05:45:00,33.4,27.6,29.86,SSE,157,0.7,8.1,79,0.00,,,0.00,WUHU21623XXSP,2013-02-10 11:45:00,
2013-02-10 05:50:00,33.4,27.6,29.85,SE,135,2.2,12.5,79,0.00,,,0.00,WUHU21623XXSP,2013-02-10 11:50:00,
2013-02-10 05:55:00,33.4,27.9,29.85,SSE,157,2.5,12.5,80,0.00,,,0.00,WUHU21623XXSP,2013-02-10 11:55:00,
2013-02-10 06:00:00,33.4,27.9,29.84,SSE,157,6.0,9.4,80,0.00,,,0.00,WUHU21623XXSP,2013-02-10 12:00:00,
2013-02-10 06:05:00,33.4,27.9,29.84,SE,135,0.9,9.4,80,0.00,,,0.00,WUHU21623XXSP,2013-02-10 12:05:00,
2013-02-10 06:10:00,33.4,28.2,29.84,SE,135,1.8,8.7,81,0.00,,,0.00,WUHU21623XXSP,2013-02-10 12:10:00,
2013-02-10 06:15:00,33.4,28.2,29.83,ESE,112,0.9,8.7,81,0.00,,,0.00,WUHU21623XXSP,2013-02-10 12:15:00,
2013-02-10 06:20:00,33.4,28.2,29.83,SE,135,2.2,6.9,81,0.00,,,0.00,WUHU21623XXSP,2013-02-10 12:20:00,
2013-02-10 06:25:00,33.4,28.2,29.82,SSE,157,7.2,7.2,81,0.00,,,0.00,WUHU21623XXSP,2013-02-10 12:25:00,
2013-02-10 06:30:00,33.6,28.3,29.82,SE,135,9.4,10.1,81,0.00,,,0.00,WUHU21623XXSP,2013-02-10 12:30:00,
2013-02-10 06:35:00,33.6,28.6,29.81,SE,135,3.1,10.1,82,0.00,,,0.00,WUHU21623XXSP,2013-02-10 12:35:00,
2013-02-10 06:40:00,33.6,28.6,29.81,SE,135,4.5,9.6,82,0.00,,,0.00,WUHU21623XXSP,2013-02-10 12:40:00,
2013-02-10 06:45:00,33.6,28.6,29.81,ESE,112,1.8,9.4,82,0.00,,,0.00,WUHU21623XXSP,2013-02-10 12:45:00,
2013-02-10 06:50:00,33.6,28.6,29.81,SE,135,4.9,9.4,82,0.00,,,0.00,WUHU21623XXSP,2013-02-10 12:50:00,
2013-02-10 06:55:00,34.0,29.0,29.79,SE,135,4.0,6.7,82,0.00,,,0.00,WUHU21623XXSP,2013-02-10 12:55:00,
2013-02-10 07:00:00,34.0,29.3,29.79,SSE,157,3.4,8.3,83,0.00,,,0.00,WUHU21623XXSP,2013-02-10 13:00:00,
2013-02-10 07:05:00,34.0,29.3,29.79,SE,135,4.0,9.8,83,0.00,,,0.00,WUHU21623XXSP,2013-02-10 13:05:00,
2013-02-10 07:10:00,34.0,29.3,29.79,SE,135,1.8,9.8,83,0.00,,,0.00,WUHU21623XXSP,2013-02-10 13:10:00,
2013-02-10 07:15:00,34.2,29.4,29.78,SE,135,6.3,11.2,83,0.00,,,0.00,WUHU21623XXSP,2013-02-10 13:15:00,
2013-02-10 07:20:00,34.2,29.7,29.78,SE,135,2.9,11.9,84,0.00,,,0.00,WUHU21623XXSP,2013-02-10 13:20:00,
2013-02-10 07:25:00,34.2,29.7,29.77,ESE,112,2.0,11.9,84,0.00,,,0.00,WUHU21623XXSP,2013-02-10 13:25:00,
2013-02-10 07:30:00,34.2,29.7,29.78,SE,135,2.9,11.2,84,0.00,,,0.00,WUHU21623XXSP,2013-02-10 13:30:00,
2013-02-10 07:35:00,34.2,29.7,29.79,SE,135,3.4,12.8,84,0.00,,,0.00,WUHU21623XXSP,2013-02-10 13:35:00,
2013-02-10 07:40:00,34.2,29.7,29.79,SE,135,6.9,12.8,84,0.00,,,0.00,WUHU21623XXSP,2013-02-10 13:40:00,
2013-02-10 07:45:00,34.2,30.0,29.78,SE,135,6.9,14.1,85,0.00,,,0.00,WUHU21623XXSP,2013-02-10 13:45:00,
2013-02-10 07:50:00,34.3,30.2,29.78,ESE,112,1.3,14.1,85,0.00,,,0.00,WUHU21623XXSP,2013-02-10 13:50:00,
2013-02-10 07:55:00,34.5,30.4,29.78,SE,135,10.5,12.3,85,0.00,,,0.00,WUHU21623XXSP,2013-02-10 13:55:00,
2013-02-10 08:00:00,34.5,30.4,29.77,SSE,157,7.6,11.0,85,0.00,,,0.00,WUHU21623XXSP,2013-02-10 14:00:00,
2013-02-10 08:05:00,34.5,30.4,29.78,SE,135,4.5,11.6,85,0.00,,,0.00,WUHU21623XXSP,2013-02-10 14:05:00,
2013-02-10 08:10:00,34.7,30.8,29.77,SSE,157,6.3,15.0,86,0.00,,,0.00,WUHU21623XXSP,2013-02-10 14:10:00,
2013-02-10 08:15:00,34.7,30.8,29.77,SSE,157,6.9,16.8,86,0.00,,,0.00,WUHU21623XXSP,2013-02-10 14:15:00,
2013-02-10 08:20:00,34.7,30.8,29.76,East,90,5.8,16.8,86,0.00,,,0.00,WUHU21623XXSP,2013-02-10 14:20:00,
2013-02-10 08:25:00,34.7,30.8,29.76,ESE,112,2.9,13.9,86,0.00,,,0.00,WUHU21623XXSP,2013-02-10 14:25:00,
2013-02-10 08:30:00,34.7,31.1,29.75,SE,135,4.7,12.5,87,0.00,,,0.00,WUHU21623XXSP,2013-02-10 14:30:00,
2013-02-10 08:35:00,34.9,31.3,29.74,ESE,112,6.3,12.5,87,0.00,,,0.00,WUHU21623XXSP,2013-02-10 14:35:00,
2013-02-10 08:40:00,34.7,31.1,29.74,SE,135,6.0,15.2,87,0.00,,,0.00,WUHU21623XXSP,2013-02-10 14:40:00,
2013-02-10 08:45:00,34.9,31.3,29.73,ESE,112,9.6,15.2,87,0.00,,,0.00,WUHU21623XXSP,2013-02-10 14:45:00,
2013-02-10 08:50:00,34.9,31.3,29.72,SSE,157,9.6,15.0,87,0.00,,,0.00,WUHU21623XXSP,2013-02-10 14:50:00,
2013-02-10 08:55:00,34.9,31.3,29.72,SE,135,3.1,15.0,87,0.00,,,0.00,WUHU21623XXSP,2013-02-10 14:55:00,
2013-02-10 09:00:00,35.1,31.5,29.72,SE,135,10.7,10.7,87,0.00,,,0.00,WUHU21623XXSP,2013-02-10 15:00:00,
2013-02-10 09:05:00,35.1,31.5,29.71,SSE,157,11.0,12.5,87,0.00,,,0.00,WUHU21623XXSP,2013-02-10 15:05:00,
2013-02-10 09:10:00,35.1,31.5,29.71,SSE,157,7.8,12.5,87,0.00,,,0.00,WUHU21623XXSP,2013-02-10 15:10:00,
2013-02-10 09:15:00,35.1,31.5,29.70,SE,135,8.7,13.9,87,0.00,,,0.00,WUHU21623XXSP,2013-02-10 15:15:00,
2013-02-10 09:20:00,35.1,31.5,29.70,SE,135,11.2,13.9,87,0.00,,,0.00,WUHU21623XXSP,2013-02-10 15:20:00,
2013-02-10 09:25:00,35.1,31.5,29.70,SE,135,6.9,16.6,87,0.00,,,0.00,WUHU21623XXSP,2013-02-10 15:25:00,
2013-02-10 09:30:00,35.1,31.5,29.70,ESE,112,8.9,16.6,87,0.00,,,0.00,WUHU21623XXSP,2013-02-10 15:30:00,
2013-02-10 09:35:00,35.1,31.5,29.70,SE,135,3.6,15.9,87,0.00,,,0.00,WUHU21623XXSP,2013-02-10 15:35:00,
2013-02-10 09:40:00,35.1,31.5,29.70,SSE,157,6.7,12.1,87,0.00,,,0.00,WUHU21623XXSP,2013-02-10 15:40:00,
2013-02-10 09:45:00,34.9,31.3,29.70,SE,135,7.2,7.2,87,0.00,,,0.00,WUHU21623XXSP,2013-02-10 15:45:00,
2013-02-10 09:50:00,34.9,31.3,29.70,SE,135,4.9,11.4,87,0.00,,,0.00,WUHU21623XXSP,2013-02-10 15:50:00,
2013-02-10 09:55:00,34.9,31.3,29.70,ESE,112,5.6,11.4,87,0.00,,,0.00,WUHU21623XXSP,2013-02-10 15:55:00,
2013-02-10 10:00:00,34.7,31.1,29.70,SE,135,5.4,5.6,87,0.00,,,0.00,WUHU21623XXSP,2013-02-10 16:00:00,
2013-02-10 10:05:00,34.7,31.1,29.69,SE,135,5.8,5.8,87,0.00,,,0.00,WUHU21623XXSP,2013-02-10 16:05:00,
2013-02-10 10:10:00,34.9,31.3,29.68,SE,135,4.9,5.8,87,0.00,,,0.00,WUHU21623XXSP,2013-02-10 16:10:00,
2013-02-10 10:15:00,34.9,31.3,29.68,SE,135,7.6,7.6,87,0.00,,,0.00,WUHU21623XXSP,2013-02-10 16:15:00,
2013-02-10 10:20:00,34.9,31.3,29.67,SE,135,3.8,7.6,87,0.00,,,0.00,WUHU21623XXSP,2013-02-10 16:20:00,
2013-02-10 10:25:00,34.9,31.3,29.66,SSE,157,15.2,15.2,87,0.00,,,0.00,WUHU21623XXSP,2013-02-10 16:25:00,
2013-02-10 10:30:00,35.1,31.5,29.66,SE,135,7.8,15.2,87,0.00,,,0.00,WUHU21623XXSP,2013-02-10 16:30:00,
2013-02-10 10:36:00,35.1,31.5,29.65,SSE,157,2.5,12.5,87,0.00,,,0.00,WUHU21623XXSP,2013-02-10 16:36:00,
2013-02-10 10:41:00,35.1,31.5,29.65,SE,135,5.8,12.5,87,0.00,,,0.00,WUHU21623XXSP,2013-02-10 16:41:00,
2013-02-10 10:46:00,35.1,31.5,29.65,SE,135,11.2,11.2,87,0.00,,,0.00,WUHU21623XXSP,2013-02-10 16:46:00,
2013-02-10 10:50:00,35.1,31.8,29.64,SE,135,14.1,14.1,88,0.00,,,0.00,WUHU21623XXSP,2013-02-10 16:50:00,
2013-02-10 10:55:00,35.2,32.0,29.64,South,180,3.6,14.1,88,0.00,,,0.00,WUHU21623XXSP,2013-02-10 16:55:00,
2013-02-10 11:00:00,35.4,32.1,29.63,SSE,157,6.7,11.6,88,0.00,,,0.00,WUHU21623XXSP,2013-02-10 17:00:00,
2013-02-10 11:06:00,35.6,32.3,29.63,ESE,112,5.4,11.6,88,0.00,,,0.00,WUHU21623XXSP,2013-02-10 17:06:00,
2013-02-10 11:11:00,35.4,32.1,29.62,ESE,112,6.3,8.1,88,0.00,,,0.00,WUHU21623XXSP,2013-02-10 17:11:00,
2013-02-10 11:15:00,35.4,32.1,29.61,ESE,112,6.3,6.3,88,0.00,,,0.00,WUHU21623XXSP,2013-02-10 17:15:00,
2013-02-10 11:20:00,35.4,32.1,29.60,ESE,112,6.3,6.3,88,0.00,,,0.00,WUHU21623XXSP,2013-02-10 17:20:00,
2013-02-10 11:25:00,35.6,32.3,29.60,SE,135,6.0,6.3,88,0.00,,,0.00,WUHU21623XXSP,2013-02-10 17:25:00,
2013-02-10 11:31:00,36.0,33.0,29.59,SE,135,17.2,17.2,89,0.00,,,0.00,WUHU21623XXSP,2013-02-10 17:31:00,
2013-02-10 11:36:00,36.1,33.2,29.59,SSE,157,7.4,17.2,89,0.00,,,0.00,WUHU21623XXSP,2013-02-10 17:36:00,
2013-02-10 11:41:00,36.5,33.5,29.58,SE,135,10.5,10.5,89,0.00,,,0.00,WUHU21623XXSP,2013-02-10 17:41:00,
2013-02-10 11:46:00,36.7,33.7,29.57,SSE,157,13.4,15.2,89,0.00,,,0.00,WUHU21623XXSP,2013-02-10 17:46:00,
2013-02-10 11:50:00,36.5,33.5,29.57,SE,135,8.3,15.7,89,0.00,,,0.00,WUHU21623XXSP,2013-02-10 17:50:00,
2013-02-10 11:55:00,36.7,33.7,29.57,SSE,157,3.1,15.7,89,0.00,,,0.00,WUHU21623XXSP,2013-02-10 17:55:00,
2013-02-10 12:00:00,36.9,33.9,29.55,SSE,157,9.8,9.8,89,0.00,,,0.00,WUHU21623XXSP,2013-02-10 18:00:00,
2013-02-10 12:05:00,37.0,34.1,29.55,SE,135,6.3,12.5,89,0.00,,,0.00,WUHU21623XXSP,2013-02-10 18:05:00,
2013-02-10 12:10:00,37.0,34.1,29.54,SE,135,4.3,12.5,89,0.00,,,0.00,WUHU21623XXSP,2013-02-10 18:10:00,
2013-02-10 12:15:00,37.0,34.1,29.54,SSE,157,10.1,10.1,89,0.00,,,0.00,WUHU21623XXSP,2013-02-10 18:15:00,
2013-02-10 12:20:00,37.0,34.1,29.53,SE,135,8.1,10.1,89,0.00,,,0.00,WUHU21623XXSP,2013-02-10 18:20:00,
2013-02-10 12:25:00,37.0,34.1,29.52,SE,135,7.2,10.5,89,0.00,,,0.00,WUHU21623XXSP,2013-02-10 18:25:00,
2013-02-10 12:30:00,37.0,34.1,29.51,SE,135,5.8,10.5,89,0.00,,,0.00,WUHU21623XXSP,2013-02-10 18:30:00,
2013-02-10 12:35:00,37.2,34.2,29.51,SSE,157,5.4,13.6,89,0.00,,,0.00,WUHU21623XXSP,2013-02-10 18:35:00,
2013-02-10 12:40:00,37.0,34.1,29.51,SE,135,6.3,13.6,89,0.00,,,0.00,WUHU21623XXSP,2013-02-10 18:40:00,
2013-02-10 12:45:00,37.0,34.1,29.50,SE,135,9.6,9.6,89,0.00,,,0.00,WUHU21623XXSP,2013-02-10 18:45:00,
2013-02-10 12:50:00,37.0,34.1,29.50,SSE,157,14.3,14.3,89,0.00,,,0.00,WUHU21623XXSP,2013-02-10 18:50:00,
2013-02-10 12:55:00,37.0,34.1,29.50,SE,135,12.8,14.3,89,0.00,,,0.00,WUHU21623XXSP,2013-02-10 18:55:00,
2013-02-10 13:00:00,37.4,34.4,29.50,SE,135,7.2,12.8,89,0.00,,,0.00,WUHU21623XXSP,2013-02-10 19:00:00,
2013-02-10 13:05:00,37.4,34.7,29.49,SE,135,5.6,9.4,90,0.00,,,0.00,WUHU21623XXSP,2013-02-10 19:05:00,
2013-02-10 13:10:00,37.4,34.7,29.50,SSE,157,4.9,9.4,90,0.00,,,0.00,WUHU21623XXSP,2013-02-10 19:10:00,
2013-02-10 13:15:00,37.2,34.5,29.49,SSE,157,6.3,8.1,90,0.00,,,0.00,WUHU21623XXSP,2013-02-10 19:15:00,
2013-02-10 13:20:00,37.0,34.3,29.50,SE,135,3.6,8.1,90,0.00,,,0.00,WUHU21623XXSP,2013-02-10 19:20:00,
2013-02-10 13:26:00,37.0,34.3,29.50,SE,135,4.9,6.9,90,0.00,,,0.00,WUHU21623XXSP,2013-02-10 19:26:00,
2013-02-10 13:31:00,37.0,34.3,29.50,SE,135,6.0,9.4,90,0.00,,,0.00,WUHU21623XXSP,2013-02-10 19:31:00,
2013-02-10 13:36:00,37.0,34.3,29.50,South,180,3.6,9.4,90,0.00,,,0.00,WUHU21623XXSP,2013-02-10 19:36:00,
2013-02-10 13:41:00,37.0,34.3,29.49,SE,135,4.5,4.5,90,0.00,,,0.00,WUHU21623XXSP,2013-02-10 19:41:00,
2013-02-10 13:46:00,37.0,34.3,29.48,SSE,157,3.4,9.4,90,0.00,,,0.00,WUHU21623XXSP,2013-02-10 19:46:00,
2013-02-10 13:51:00,37.2,34.5,29.48,SE,135,5.6,9.4,90,0.00,,,0.00,WUHU21623XXSP,2013-02-10 19:51:00,
2013-02-10 13:56:00,37.4,34.7,29.48,South,180,3.8,5.6,90,0.00,,,0.00,WUHU21623XXSP,2013-02-10 19:56:00,
2013-02-10 14:01:00,37.6,34.9,29.48,SE,135,6.3,6.3,90,0.00,,,0.00,WUHU21623XXSP,2013-02-10 20:01:00,
2013-02-10 14:06:00,37.8,35.3,29.48,ESE,112,2.9,8.5,91,0.00,,,0.00,WUHU21623XXSP,2013-02-10 20:06:00,
2013-02-10 14:11:00,38.3,35.9,29.47,SE,135,2.5,8.5,91,0.00,,,0.00,WUHU21623XXSP,2013-02-10 20:11:00,
2013-02-10 14:16:00,38.3,35.9,29.47,ESE,112,5.6,5.8,91,0.00,,,0.00,WUHU21623XXSP,2013-02-10 20:16:00,
2013-02-10 14:21:00,38.5,36.0,29.47,South,180,3.1,5.6,91,0.00,,,0.00,WUHU21623XXSP,2013-02-10 20:21:00,
2013-02-10 14:26:00,38.7,36.5,29.47,SE,135,4.5,4.5,92,0.00,,,0.00,WUHU21623XXSP,2013-02-10 20:26:00,
2013-02-10 14:31:00,38.7,36.5,29.47,SSW,202,2.0,4.5,92,0.00,,,0.00,WUHU21623XXSP,2013-02-10 20:31:00,
2013-02-10 14:36:00,38.8,36.7,29.46,South,180,12.8,12.8,92,0.00,,,0.00,WUHU21623XXSP,2013-02-10 20:36:00,
2013-02-10 14:41:00,38.8,36.7,29.46,South,180,6.3,12.8,92,0.00,,,0.00,WUHU21623XXSP,2013-02-10 20:41:00,
2013-02-10 14:46:00,39.2,37.0,29.46,SSE,157,3.6,8.1,92,0.00,,,0.00,WUHU21623XXSP,2013-02-10 20:46:00,
2013-02-10 14:51:00,39.4,37.2,29.46,SSE,157,6.3,8.1,92,0.00,,,0.00,WUHU21623XXSP,2013-02-10 20:51:00,
2013-02-10 14:56:00,39.4,37.5,29.45,South,180,9.8,9.8,93,0.00,,,0.00,WUHU21623XXSP,2013-02-10 20:56:00,
2013-02-10 15:01:00,39.6,37.7,29.44,SSE,157,2.9,9.8,93,0.00,,,0.00,WUHU21623XXSP,2013-02-10 21:01:00,
2013-02-10 15:06:00,39.7,37.9,29.44,SSE,157,6.5,8.3,93,0.00,,,0.00,WUHU21623XXSP,2013-02-10 21:06:00,
2013-02-10 15:11:00,39.9,38.0,29.44,SSE,157,7.4,11.9,93,0.00,,,0.00,WUHU21623XXSP,2013-02-10 21:11:00,
2013-02-10 15:16:00,39.9,38.0,29.44,SE,135,4.0,11.9,93,0.00,,,0.00,WUHU21623XXSP,2013-02-10 21:16:00,
2013-02-10 15:21:00,39.9,38.0,29.43,ESE,112,8.5,8.5,93,0.00,,,0.00,WUHU21623XXSP,2013-02-10 21:21:00,
2013-02-10 15:26:00,39.9,38.3,29.44,SSE,157,7.8,8.5,94,0.00,,,0.00,WUHU21623XXSP,2013-02-10 21:26:00,
2013-02-10 15:31:00,39.9,38.3,29.44,SE,135,6.0,7.8,94,0.00,,,0.00,WUHU21623XXSP,2013-02-10 21:31:00,
2013-02-10 15:36:00,40.1,38.5,29.43,SE,135,4.7,6.0,94,0.00,,,0.00,WUHU21623XXSP,2013-02-10 21:36:00,
2013-02-10 15:41:00,40.1,38.5,29.44,South,180,4.3,6.0,94,0.00,,,0.00,WUHU21623XXSP,2013-02-10 21:41:00,
2013-02-10 15:46:00,40.1,38.5,29.44,ESE,112,3.8,4.5,94,0.00,,,0.00,WUHU21623XXSP,2013-02-10 21:46:00,
2013-02-10 15:51:00,40.1,38.5,29.43,SSE,157,9.2,9.2,94,0.00,,,0.00,WUHU21623XXSP,2013-02-10 21:51:00,
2013-02-10 15:56:00,40.1,38.5,29.44,SSW,202,9.4,9.4,94,0.00,,,0.00,WUHU21623XXSP,2013-02-10 21:56:00,
2013-02-10 16:01:00,40.1,38.5,29.43,SE,135,3.6,9.4,94,0.00,,,0.00,WUHU21623XXSP,2013-02-10 22:01:00,
2013-02-10 16:06:00,40.3,38.7,29.43,SE,135,4.7,4.7,94,0.00,,,0.00,WUHU21623XXSP,2013-02-10 22:06:00,
2013-02-10 16:11:00,40.3,38.7,29.43,SSE,157,1.8,9.4,94,0.00,,,0.00,WUHU21623XXSP,2013-02-10 22:11:00,
2013-02-10 16:16:00,40.5,38.8,29.43,ESE,112,4.7,9.4,94,0.00,,,0.00,WUHU21623XXSP,2013-02-10 22:16:00,
2013-02-10 16:21:00,40.5,38.8,29.43,SE,135,1.6,5.8,94,0.00,,,0.00,WUHU21623XXSP,2013-02-10 22:21:00,
2013-02-10 16:26:00,40.6,39.0,29.42,SSE,157,6.3,6.7,94,0.00,,,0.00,WUHU21623XXSP,2013-02-10 22:26:00,
2013-02-10 16:31:00,40.6,39.6,29.42,South,180,7.2,7.2,96,0.00,,,0.00,WUHU21623XXSP,2013-02-10 22:31:00,
2013-02-10 16:36:00,40.6,39.6,29.42,SE,135,2.9,7.2,96,0.00,,,0.00,WUHU21623XXSP,2013-02-10 22:36:00,
2013-02-10 16:41:00,40.6,39.6,29.42,SE,135,0.0,6.9,96,0.00,,,0.00,WUHU21623XXSP,2013-02-10 22:41:00,
2013-02-10 16:46:00,40.6,39.6,29.42,South,180,6.9,6.9,96,0.00,,,0.00,WUHU21623XXSP,2013-02-10 22:46:00,
2013-02-10 16:51:00,40.8,39.7,29.42,SSE,157,5.4,6.9,96,0.00,,,0.00,WUHU21623XXSP,2013-02-10 22:51:00,
2013-02-10 16:56:00,41.0,39.9,29.42,ESE,112,6.3,6.3,96,0.00,,,0.00,WUHU21623XXSP,2013-02-10 22:56:00,
2013-02-10 17:01:00,41.2,40.1,29.42,SSE,157,9.6,9.6,96,0.00,,,0.00,WUHU21623XXSP,2013-02-10 23:01:00,
2013-02-10 17:06:00,41.2,40.1,29.42,SSE,157,2.0,9.6,96,0.00,,,0.00,WUHU21623XXSP,2013-02-10 23:06:00,
2013-02-10 17:11:00,41.4,40.3,29.42,SSE,157,1.8,7.4,96,0.00,,,0.00,WUHU21623XXSP,2013-02-10 23:11:00,
2013-02-10 17:16:00,41.2,40.1,29.41,SE,135,2.7,4.3,96,0.00,,,0.00,WUHU21623XXSP,2013-02-10 23:16:00,
2013-02-10 17:21:00,41.4,40.3,29.41,SE,135,5.4,5.4,96,0.00,,,0.00,WUHU21623XXSP,2013-02-10 23:21:00,
2013-02-10 17:26:00,41.2,40.1,29.41,SSE,157,0.9,5.4,96,0.00,,,0.00,WUHU21623XXSP,2013-02-10 23:26:00,
2013-02-10 17:31:00,41.4,40.3,29.41,SSE,157,4.7,4.7,96,0.00,,,0.00,WUHU21623XXSP,2013-02-10 23:31:00,
2013-02-10 17:36:00,41.5,40.5,29.41,South,180,3.6,4.7,96,0.00,,,0.00,WUHU21623XXSP,2013-02-10 23:36:00,
2013-02-10 17:41:00,41.4,40.3,29.41,SE,135,3.8,3.8,96,0.00,,,0.00,WUHU21623XXSP,2013-02-10 23:41:00,
2013-02-10 17:46:00,41.4,40.3,29.41,South,180,3.4,4.3,96,0.00,,,0.00,WUHU21623XXSP,2013-02-10 23:46:00,
2013-02-10 17:51:00,41.4,40.3,29.41,SSE,157,2.7,4.3,96,0.00,,,0.00,WUHU21623XXSP,2013-02-10 23:51:00,
2013-02-10 17:56:00,41.4,40.3,29.41,SE,135,1.6,2.9,96,0.00,,,0.00,WUHU21623XXSP,2013-02-10 23:56:00,
2013-02-10 18:01:00,41.4,40.3,29.41,SE,135,2.5,3.1,96,0.00,,,0.00,WUHU21623XXSP,2013-02-11 00:01:00,
2013-02-10 18:06:00,41.4,40.3,29.40,South,180,3.1,3.4,96,0.00,,,0.00,WUHU21623XXSP,2013-02-11 00:06:00,
2013-02-10 18:11:00,41.4,40.3,29.41,SE,135,1.6,5.6,96,0.00,,,0.00,WUHU21623XXSP,2013-02-11 00:11:00,
2013-02-10 18:16:00,41.4,40.3,29.41,SSE,157,1.8,5.6,96,0.00,,,0.00,WUHU21623XXSP,2013-02-11 00:16:00,
2013-02-10 18:21:00,41.4,40.3,29.40,SE,135,4.0,4.0,96,0.00,,,0.00,WUHU21623XXSP,2013-02-11 00:21:00,
2013-02-10 18:26:00,41.4,40.3,29.41,SSE,157,0.9,4.0,96,0.00,,,0.00,WUHU21623XXSP,2013-02-11 00:26:00,
2013-02-10 18:31:00,41.4,40.3,29.41,SSE,157,2.5,2.5,96,0.00,,,0.00,WUHU21623XXSP,2013-02-11 00:31:00,
2013-02-10 18:36:00,41.4,40.3,29.41,South,180,4.0,4.0,96,0.00,,,0.00,WUHU21623XXSP,2013-02-11 00:36:00,
2013-02-10 18:41:00,41.4,40.3,29.40,SSE,157,2.5,4.0,96,0.00,,,0.00,WUHU21623XXSP,2013-02-11 00:41:00,
2013-02-10 18:46:00,41.4,40.3,29.40,SSE,157,3.4,3.4,96,0.00,,,0.00,WUHU21623XXSP,2013-02-11 00:46:00,
2013-02-10 18:51:00,41.4,40.3,29.40,SSW,202,0.4,4.0,96,0.00,,,0.00,WUHU21623XXSP,2013-02-11 00:51:00,
2013-02-10 18:56:00,41.7,40.6,29.40,South,180,5.1,5.1,96,0.00,,,0.00,WUHU21623XXSP,2013-02-11 00:56:00,
2013-02-10 19:01:00,41.9,40.8,29.40,South,180,3.6,5.1,96,0.00,,,0.00,WUHU21623XXSP,2013-02-11 01:01:00,
2013-02-10 19:06:00,41.9,40.8,29.41,South,180,2.5,4.7,96,0.00,,,0.00,WUHU21623XXSP,2013-02-11 01:06:00,
2013-02-10 19:11:00,41.9,40.8,29.41,SSW,202,4.3,4.7,96,0.00,,,0.00,WUHU21623XXSP,2013-02-11 01:11:00,
2013-02-10 19:16:00,41.9,40.8,29.41,South,180,6.0,6.0,96,0.00,,,0.00,WUHU21623XXSP,2013-02-11 01:16:00,
2013-02-10 19:21:00,41.7,40.8,29.41,SSW,202,2.9,6.0,96,0.00,,,0.00,WUHU21623XXSP,2013-02-11 01:21:00,
2013-02-10 19:26:00,41.7,40.6,29.41,South,180,3.4,3.4,96,0.00,,,0.00,WUHU21623XXSP,2013-02-11 01:26:00,
2013-02-10 19:31:00,41.4,40.3,29.41,SSW,202,5.1,5.1,96,0.00,,,0.00,WUHU21623XXSP,2013-02-11 01:31:00,
2013-02-10 19:36:00,41.4,40.3,29.41,SSW,202,2.7,5.1,96,0.00,,,0.00,WUHU21623XXSP,2013-02-11 01:36:00,
2013-02-10 19:41:00,41.4,40.3,29.41,South,180,5.1,5.1,96,0.00,,,0.00,WUHU21623XXSP,2013-02-11 01:41:00,
2013-02-10 19:46:00,41.0,39.9,29.41,SSW,202,5.4,6.3,96,0.00,,,0.00,WUHU21623XXSP,2013-02-11 01:46:00,
2013-02-10 19:51:00,41.0,39.9,29.41,SSW,202,1.6,6.3,96,0.00,,,0.00,WUHU21623XXSP,2013-02-11 01:51:00,
2013-02-10 19:56:00,40.8,39.7,29.41,SW,225,3.8,3.8,96,0.00,,,0.00,WUHU21623XXSP,2013-02-11 01:56:00,
2013-02-10 20:01:00,40.6,39.6,29.41,SSW,202,1.6,5.8,96,0.00,,,0.00,WUHU21623XXSP,2013-02-11 02:01:00,
2013-02-10 20:06:00,40.8,39.7,29.41,South,180,5.6,5.8,96,0.00,,,0.00,WUHU21623XXSP,2013-02-11 02:06:00,
2013-02-10 20:11:00,41.0,39.9,29.41,SW,225,4.7,5.8,96,0.00,,,0.00,WUHU21623XXSP,2013-02-11 02:11:00,
2013-02-10 20:16:00,41.0,39.9,29.42,SSW,202,4.5,5.8,96,0.00,,,0.00,WUHU21623XXSP,2013-02-11 02:16:00,
2013-02-10 20:21:00,41.2,40.1,29.42,SW,225,6.5,6.5,96,0.00,,,0.00,WUHU21623XXSP,2013-02-11 02:21:00,
2013-02-10 20:26:00,41.7,40.5,29.42,SW,225,6.0,6.5,96,0.00,,,0.00,WUHU21623XXSP,2013-02-11 02:26:00,
2013-02-10 20:31:00,42.3,41.2,29.42,SW,225,5.8,6.9,96,0.00,,,0.00,WUHU21623XXSP,2013-02-11 02:31:00,
2013-02-10 20:36:00,42.4,40.3,29.42,SW,225,3.1,6.9,92,0.00,,,0.00,WUHU21623XXSP,2013-02-11 02:36:00,
2013-02-10 20:41:00,42.4,39.1,29.43,SW,225,5.6,5.6,88,0.00,,,0.00,WUHU21623XXSP,2013-02-11 02:41:00,
2013-02-10 20:46:00,42.6,38.4,29.43,SW,225,0.0,5.6,85,0.00,,,0.00,WUHU21623XXSP,2013-02-11 02:46:00,
2013-02-10 20:51:00,43.0,37.5,29.42,SSE,157,5.8,6.5,81,0.00,,,0.00,WUHU21623XXSP,2013-02-11 02:51:00,
2013-02-10 20:56:00,43.2,36.7,29.43,SW,225,5.1,6.9,76,0.00,,,0.00,WUHU21623XXSP,2013-02-11 02:56:00,
2013-02-10 21:01:00,43.0,35.3,29.43,SW,225,4.9,6.9,74,0.00,,,0.00,WUHU21623XXSP,2013-02-11 03:01:00,
2013-02-10 21:06:00,42.8,34.8,29.43,SW,225,5.8,5.8,73,0.00,,,0.00,WUHU21623XXSP,2013-02-11 03:06:00,
2013-02-10 21:11:00,42.6,33.6,29.43,WSW,247,5.8,5.8,70,0.00,,,0.00,WUHU21623XXSP,2013-02-11 03:11:00,
2013-02-10 21:16:00,42.6,32.4,29.43,SW,225,4.3,6.7,67,0.00,,,0.00,WUHU21623XXSP,2013-02-11 03:16:00,
2013-02-10 21:21:00,43.0,32.0,29.43,SW,225,0.7,6.7,65,0.00,,,0.00,WUHU21623XXSP,2013-02-11 03:21:00,
2013-02-10 21:26:00,42.6,31.2,29.43,ESE,112,2.7,7.4,64,0.00,,,0.00,WUHU21623XXSP,2013-02-11 03:26:00,
2013-02-10 21:31:00,42.3,30.9,29.44,WSW,247,6.3,7.4,64,0.00,,,0.00,WUHU21623XXSP,2013-02-11 03:31:00,
2013-02-10 21:36:00,42.3,30.9,29.43,SE,135,1.3,6.3,64,0.00,,,0.00,WUHU21623XXSP,2013-02-11 03:36:00,
2013-02-10 21:41:00,41.9,30.2,29.44,SSW,202,4.9,6.3,63,0.00,,,0.00,WUHU21623XXSP,2013-02-11 03:41:00,
2013-02-10 21:46:00,41.9,30.2,29.44,SW,225,7.2,7.2,63,0.00,,,0.00,WUHU21623XXSP,2013-02-11 03:46:00,
2013-02-10 21:51:00,41.7,29.6,29.44,SW,225,9.2,9.2,62,0.00,,,0.00,WUHU21623XXSP,2013-02-11 03:51:00,
2013-02-10 21:56:00,41.2,29.1,29.45,SW,225,8.3,9.2,62,0.00,,,0.00,WUHU21623XXSP,2013-02-11 03:56:00,
2013-02-10 22:01:00,41.0,29.0,29.45,WSW,247,2.0,8.3,62,0.00,,,0.00,WUHU21623XXSP,2013-02-11 04:01:00,
2013-02-10 22:06:00,40.6,28.6,29.45,SW,225,1.6,7.2,62,0.00,,,0.00,WUHU21623XXSP,2013-02-11 04:06:00,
2013-02-10 22:11:00,40.3,28.3,29.45,SW,225,2.0,7.2,62,0.00,,,0.00,WUHU21623XXSP,2013-02-11 04:11:00,
2013-02-10 22:16:00,40.1,28.5,29.45,SW,225,4.5,4.5,63,0.00,,,0.00,WUHU21623XXSP,2013-02-11 04:16:00,
2013-02-10 22:21:00,40.1,28.5,29.45,SW,225,6.9,6.9,63,0.00,,,0.00,WUHU21623XXSP,2013-02-11 04:21:00,
2013-02-10 22:26:00,39.7,28.5,29.45,SSW,202,4.5,6.9,64,0.00,,,0.00,WUHU21623XXSP,2013-02-11 04:26:00,
2013-02-10 22:31:00,39.4,28.1,29.45,SW,225,3.1,6.5,64,0.00,,,0.00,WUHU21623XXSP,2013-02-11 04:31:00,
2013-02-10 22:36:00,39.4,28.1,29.45,SW,225,3.1,6.5,64,0.00,,,0.00,WUHU21623XXSP,2013-02-11 04:36:00,
2013-02-10 22:41:00,39.4,28.1,29.45,SW,225,6.3,6.3,64,0.00,,,0.00,WUHU21623XXSP,2013-02-11 04:41:00,
2013-02-10 22:46:00,39.4,28.1,29.45,ESE,112,0.9,6.3,64,0.00,,,0.00,WUHU21623XXSP,2013-02-11 04:46:00,
2013-02-10 22:51:00,39.4,28.1,29.45,South,180,1.8,6.5,64,0.00,,,0.00,WUHU21623XXSP,2013-02-11 04:51:00,
2013-02-10 22:56:00,39.4,28.1,29.46,WSW,247,4.9,10.1,64,0.00,,,0.00,WUHU21623XXSP,2013-02-11 04:56:00,
2013-02-10 23:00:00,39.0,27.8,29.46,WSW,247,9.8,10.1,64,0.00,,,0.00,WUHU21623XXSP,2013-02-11 05:00:00,
2013-02-10 23:05:00,38.8,27.2,29.46,WSW,247,21.0,21.0,63,0.00,,,0.00,WUHU21623XXSP,2013-02-11 05:05:00,
2013-02-10 23:10:00,38.5,26.9,29.46,WSW,247,6.9,21.0,63,0.00,,,0.00,WUHU21623XXSP,2013-02-11 05:10:00,
2013-02-10 23:15:00,38.1,26.6,29.46,WSW,247,5.6,13.4,63,0.00,,,0.00,WUHU21623XXSP,2013-02-11 05:15:00,
2013-02-10 23:20:00,37.8,26.6,29.46,SW,225,0.2,11.4,64,0.00,,,0.00,WUHU21623XXSP,2013-02-11 05:20:00,
2013-02-10 23:25:00,37.6,26.9,29.47,SW,225,5.1,8.7,65,0.00,,,0.00,WUHU21623XXSP,2013-02-11 05:25:00,
2013-02-10 23:30:00,37.4,26.7,29.47,SW,225,4.9,8.7,65,0.00,,,0.00,WUHU21623XXSP,2013-02-11 05:30:00,
2013-02-10 23:35:00,37.0,26.7,29.47,WSW,247,5.1,5.1,66,0.00,,,0.00,WUHU21623XXSP,2013-02-11 05:35:00,
2013-02-10 23:40:00,37.2,26.9,29.47,South,180,2.7,5.1,66,0.00,,,0.00,WUHU21623XXSP,2013-02-11 05:40:00,
2013-02-10 23:45:00,37.0,27.1,29.46,WSW,247,4.9,9.6,67,0.00,,,0.00,WUHU21623XXSP,2013-02-11 05:45:00,
2013-02-10 23:50:00,36.9,26.9,29.47,WSW,247,8.1,9.6,67,0.00,,,0.00,WUHU21623XXSP,2013-02-11 05:50:00,
2013-02-10 23:55:00,36.9,26.5,29.47,SSW,202,10.7,15.7,66,0.00,,,0.00,WUHU21623XXSP,2013-02-11 05:55:00,